<?xml version="1.0" encoding="UTF-8" standalone="no" ?>
<gpx xmlns="http://www.topografix.com/GPX/1/1" xmlns:xsi="http://www.w3.org/2001/XMLSchema-instance" xsi:schemaLocation="http://www.topografix.com/GPX/1/1 http://www.topografix.com/GPX/1/1/gpx.xsd" version="1.1" creator="VisuGPX - https://www.visugpx.com">
  <metadata>
    <name>Beauville 9.3 km</name>
  </metadata>
  <wpt lat="44.27687" lon="0.88189">
    <ele>210</ele>
    <name><![CDATA[Point de passage 1]]></name>
  </wpt>
  <wpt lat="44.2769" lon="0.88191">
    <ele>260</ele>
    <name><![CDATA[Point de passage 2]]></name>
  </wpt>
  <trk>
    <name><![CDATA[2025 10 16 Beauville 9]]></name>
    <extensions>
      <line xmlns="http://www.topografix.com/GPX/gpx_style/0/2">
        <color>0000FF</color>
        <width>4</width>
      </line>
    </extensions>
    <trkseg>
      <trkpt lat="44.27695" lon="0.88199">
        <ele>210.2</ele>
        <time>2025-10-16T12:07:15.653Z</time>
      </trkpt>
      <trkpt lat="44.2771" lon="0.882">
        <ele>210.1</ele>
        <time>2025-10-16T12:07:21.653Z</time>
      </trkpt>
      <trkpt lat="44.27713" lon="0.88203">
        <ele>210.1</ele>
        <time>2025-10-16T12:07:25.653Z</time>
      </trkpt>
      <trkpt lat="44.27717" lon="0.88211">
        <ele>210.1</ele>
        <time>2025-10-16T12:07:37.653Z</time>
      </trkpt>
      <trkpt lat="44.27724" lon="0.88206">
        <ele>210.1</ele>
        <time>2025-10-16T12:07:53.653Z</time>
      </trkpt>
      <trkpt lat="44.27728" lon="0.88204">
        <ele>210.2</ele>
        <time>2025-10-16T12:07:57.653Z</time>
      </trkpt>
      <trkpt lat="44.27733" lon="0.88206">
        <ele>210.4</ele>
        <time>2025-10-16T12:08:01.653Z</time>
      </trkpt>
      <trkpt lat="44.27738" lon="0.8821">
        <ele>210.6</ele>
        <time>2025-10-16T12:08:13.653Z</time>
      </trkpt>
      <trkpt lat="44.27747" lon="0.8821">
        <ele>210.9</ele>
        <time>2025-10-16T12:08:21.653Z</time>
      </trkpt>
      <trkpt lat="44.2776" lon="0.88214">
        <ele>210.4</ele>
        <time>2025-10-16T12:08:37.653Z</time>
      </trkpt>
      <trkpt lat="44.27775" lon="0.8822">
        <ele>209.3</ele>
        <time>2025-10-16T12:08:45.652Z</time>
      </trkpt>
      <trkpt lat="44.27787" lon="0.88235">
        <ele>209.4</ele>
        <time>2025-10-16T12:09:13.653Z</time>
      </trkpt>
      <trkpt lat="44.2779" lon="0.88243">
        <ele>209.5</ele>
        <time>2025-10-16T12:09:29.653Z</time>
      </trkpt>
      <trkpt lat="44.27795" lon="0.88249">
        <ele>208.9</ele>
        <time>2025-10-16T12:09:37.653Z</time>
      </trkpt>
      <trkpt lat="44.27808" lon="0.88256">
        <ele>206.5</ele>
        <time>2025-10-16T12:09:45.653Z</time>
      </trkpt>
      <trkpt lat="44.27853" lon="0.88297">
        <ele>198</ele>
        <time>2025-10-16T12:10:37.653Z</time>
      </trkpt>
      <trkpt lat="44.27858" lon="0.88307">
        <ele>196.4</ele>
        <time>2025-10-16T12:10:45.653Z</time>
      </trkpt>
      <trkpt lat="44.27862" lon="0.88307">
        <ele>195.4</ele>
        <time>2025-10-16T12:10:53.653Z</time>
      </trkpt>
      <trkpt lat="44.27893" lon="0.88261">
        <ele>186.5</ele>
        <time>2025-10-16T12:11:51.653Z</time>
      </trkpt>
      <trkpt lat="44.27915" lon="0.88245">
        <ele>179.3</ele>
        <time>2025-10-16T12:12:15.653Z</time>
      </trkpt>
      <trkpt lat="44.27929" lon="0.88244">
        <ele>176.2</ele>
        <time>2025-10-16T12:12:31.653Z</time>
      </trkpt>
      <trkpt lat="44.27933" lon="0.8824">
        <ele>175</ele>
        <time>2025-10-16T12:12:39.653Z</time>
      </trkpt>
      <trkpt lat="44.27948" lon="0.8824">
        <ele>171.8</ele>
        <time>2025-10-16T12:12:51.653Z</time>
      </trkpt>
      <trkpt lat="44.27961" lon="0.8827">
        <ele>170.1</ele>
        <time>2025-10-16T12:13:23.653Z</time>
      </trkpt>
      <trkpt lat="44.27962" lon="0.88254">
        <ele>168.3</ele>
        <time>2025-10-16T12:14:03.652Z</time>
      </trkpt>
      <trkpt lat="44.27964" lon="0.88251">
        <ele>167.5</ele>
        <time>2025-10-16T12:14:07.653Z</time>
      </trkpt>
      <trkpt lat="44.27984" lon="0.88254">
        <ele>161.1</ele>
        <time>2025-10-16T12:14:39.653Z</time>
      </trkpt>
      <trkpt lat="44.27992" lon="0.88261">
        <ele>158.2</ele>
        <time>2025-10-16T12:14:47.653Z</time>
      </trkpt>
      <trkpt lat="44.28002" lon="0.88286">
        <ele>153.8</ele>
        <time>2025-10-16T12:15:19.653Z</time>
      </trkpt>
      <trkpt lat="44.28012" lon="0.88298">
        <ele>151.4</ele>
        <time>2025-10-16T12:15:35.653Z</time>
      </trkpt>
      <trkpt lat="44.2802" lon="0.88313">
        <ele>148.6</ele>
        <time>2025-10-16T12:15:51.653Z</time>
      </trkpt>
      <trkpt lat="44.28029" lon="0.88324">
        <ele>145.5</ele>
        <time>2025-10-16T12:16:07.653Z</time>
      </trkpt>
      <trkpt lat="44.28044" lon="0.88331">
        <ele>142.7</ele>
        <time>2025-10-16T12:16:23.653Z</time>
      </trkpt>
      <trkpt lat="44.28074" lon="0.88357">
        <ele>137</ele>
        <time>2025-10-16T12:16:55.653Z</time>
      </trkpt>
      <trkpt lat="44.2812" lon="0.88385">
        <ele>126.9</ele>
        <time>2025-10-16T12:17:43.653Z</time>
      </trkpt>
      <trkpt lat="44.28139" lon="0.88389">
        <ele>121</ele>
        <time>2025-10-16T12:18:47.652Z</time>
      </trkpt>
      <trkpt lat="44.28146" lon="0.88408">
        <ele>117.6</ele>
        <time>2025-10-16T12:19:19.653Z</time>
      </trkpt>
      <trkpt lat="44.28191" lon="0.88462">
        <ele>106.9</ele>
        <time>2025-10-16T12:20:23.652Z</time>
      </trkpt>
      <trkpt lat="44.28206" lon="0.88473">
        <ele>104.3</ele>
        <time>2025-10-16T12:20:39.653Z</time>
      </trkpt>
      <trkpt lat="44.28224" lon="0.8849">
        <ele>101.3</ele>
        <time>2025-10-16T12:20:55.653Z</time>
      </trkpt>
      <trkpt lat="44.28248" lon="0.88528">
        <ele>98.2</ele>
        <time>2025-10-16T12:21:27.653Z</time>
      </trkpt>
      <trkpt lat="44.28265" lon="0.88529">
        <ele>97.5</ele>
        <time>2025-10-16T12:21:43.653Z</time>
      </trkpt>
      <trkpt lat="44.28292" lon="0.88525">
        <ele>96</ele>
        <time>2025-10-16T12:22:07.653Z</time>
      </trkpt>
      <trkpt lat="44.28298" lon="0.88521">
        <ele>95.7</ele>
        <time>2025-10-16T12:22:15.653Z</time>
      </trkpt>
      <trkpt lat="44.28316" lon="0.88518">
        <ele>95.1</ele>
        <time>2025-10-16T12:22:31.653Z</time>
      </trkpt>
      <trkpt lat="44.28326" lon="0.88521">
        <ele>94.9</ele>
        <time>2025-10-16T12:22:39.653Z</time>
      </trkpt>
      <trkpt lat="44.28357" lon="0.88559">
        <ele>93.9</ele>
        <time>2025-10-16T12:23:11.652Z</time>
      </trkpt>
      <trkpt lat="44.28389" lon="0.88591">
        <ele>93.7</ele>
        <time>2025-10-16T12:23:43.653Z</time>
      </trkpt>
      <trkpt lat="44.28561" lon="0.88706">
        <ele>94</ele>
        <time>2025-10-16T12:26:23.653Z</time>
      </trkpt>
      <trkpt lat="44.28576" lon="0.88698">
        <ele>94</ele>
        <time>2025-10-16T12:26:39.653Z</time>
      </trkpt>
      <trkpt lat="44.28595" lon="0.88655">
        <ele>93</ele>
        <time>2025-10-16T12:27:11.653Z</time>
      </trkpt>
      <trkpt lat="44.28633" lon="0.88595">
        <ele>93.5</ele>
        <time>2025-10-16T12:27:59.653Z</time>
      </trkpt>
      <trkpt lat="44.28668" lon="0.88527">
        <ele>93.9</ele>
        <time>2025-10-16T12:28:47.653Z</time>
      </trkpt>
      <trkpt lat="44.28697" lon="0.88492">
        <ele>93</ele>
        <time>2025-10-16T12:29:19.653Z</time>
      </trkpt>
      <trkpt lat="44.28714" lon="0.88479">
        <ele>93.5</ele>
        <time>2025-10-16T12:29:35.653Z</time>
      </trkpt>
      <trkpt lat="44.28751" lon="0.88463">
        <ele>94</ele>
        <time>2025-10-16T12:30:07.653Z</time>
      </trkpt>
      <trkpt lat="44.2877" lon="0.88457">
        <ele>94.4</ele>
        <time>2025-10-16T12:30:31.653Z</time>
      </trkpt>
      <trkpt lat="44.28772" lon="0.88454">
        <ele>94.5</ele>
        <time>2025-10-16T12:30:39.653Z</time>
      </trkpt>
      <trkpt lat="44.28788" lon="0.88451">
        <ele>95</ele>
        <time>2025-10-16T12:30:55.653Z</time>
      </trkpt>
      <trkpt lat="44.28817" lon="0.88453">
        <ele>95.9</ele>
        <time>2025-10-16T12:31:19.653Z</time>
      </trkpt>
      <trkpt lat="44.28972" lon="0.885">
        <ele>102</ele>
        <time>2025-10-16T12:33:27.653Z</time>
      </trkpt>
      <trkpt lat="44.28992" lon="0.88501">
        <ele>101.9</ele>
        <time>2025-10-16T12:33:43.653Z</time>
      </trkpt>
      <trkpt lat="44.29029" lon="0.88516">
        <ele>101.8</ele>
        <time>2025-10-16T12:34:15.653Z</time>
      </trkpt>
      <trkpt lat="44.29043" lon="0.88529">
        <ele>101</ele>
        <time>2025-10-16T12:34:31.653Z</time>
      </trkpt>
      <trkpt lat="44.2906" lon="0.88548">
        <ele>101.3</ele>
        <time>2025-10-16T12:34:47.653Z</time>
      </trkpt>
      <trkpt lat="44.29065" lon="0.88569">
        <ele>101.2</ele>
        <time>2025-10-16T12:35:19.653Z</time>
      </trkpt>
      <trkpt lat="44.2909" lon="0.8862">
        <ele>101.3</ele>
        <time>2025-10-16T12:36:07.653Z</time>
      </trkpt>
      <trkpt lat="44.29087" lon="0.88617">
        <ele>101.4</ele>
        <time>2025-10-16T12:36:39.653Z</time>
      </trkpt>
      <trkpt lat="44.29085" lon="0.88619">
        <ele>101.1</ele>
        <time>2025-10-16T12:37:11.653Z</time>
      </trkpt>
      <trkpt lat="44.29165" lon="0.88721">
        <ele>100.8</ele>
        <time>2025-10-16T12:39:19.653Z</time>
      </trkpt>
      <trkpt lat="44.29194" lon="0.8875">
        <ele>99.9</ele>
        <time>2025-10-16T12:39:51.653Z</time>
      </trkpt>
      <trkpt lat="44.29211" lon="0.88777">
        <ele>99.8</ele>
        <time>2025-10-16T12:40:15.653Z</time>
      </trkpt>
      <trkpt lat="44.29241" lon="0.88801">
        <ele>100.4</ele>
        <time>2025-10-16T12:40:47.653Z</time>
      </trkpt>
      <trkpt lat="44.29266" lon="0.88816">
        <ele>100.3</ele>
        <time>2025-10-16T12:41:11.653Z</time>
      </trkpt>
      <trkpt lat="44.29273" lon="0.88825">
        <ele>100</ele>
        <time>2025-10-16T12:41:19.653Z</time>
      </trkpt>
      <trkpt lat="44.29304" lon="0.88849">
        <ele>99.7</ele>
        <time>2025-10-16T12:41:51.653Z</time>
      </trkpt>
      <trkpt lat="44.29334" lon="0.88877">
        <ele>99.3</ele>
        <time>2025-10-16T12:42:23.653Z</time>
      </trkpt>
      <trkpt lat="44.29349" lon="0.88885">
        <ele>99.7</ele>
        <time>2025-10-16T12:42:39.653Z</time>
      </trkpt>
      <trkpt lat="44.29363" lon="0.88896">
        <ele>99.7</ele>
        <time>2025-10-16T12:42:55.653Z</time>
      </trkpt>
      <trkpt lat="44.29383" lon="0.88907">
        <ele>100.6</ele>
        <time>2025-10-16T12:43:19.653Z</time>
      </trkpt>
      <trkpt lat="44.29392" lon="0.88909">
        <ele>101</ele>
        <time>2025-10-16T12:43:27.652Z</time>
      </trkpt>
      <trkpt lat="44.29398" lon="0.88916">
        <ele>100.7</ele>
        <time>2025-10-16T12:43:35.653Z</time>
      </trkpt>
      <trkpt lat="44.29414" lon="0.88924">
        <ele>101</ele>
        <time>2025-10-16T12:43:51.653Z</time>
      </trkpt>
      <trkpt lat="44.29445" lon="0.88945">
        <ele>102.9</ele>
        <time>2025-10-16T12:44:23.653Z</time>
      </trkpt>
      <trkpt lat="44.29452" lon="0.88952">
        <ele>102.4</ele>
        <time>2025-10-16T12:44:31.653Z</time>
      </trkpt>
      <trkpt lat="44.29473" lon="0.88964">
        <ele>101.9</ele>
        <time>2025-10-16T12:44:47.653Z</time>
      </trkpt>
      <trkpt lat="44.2948" lon="0.88965">
        <ele>102.3</ele>
        <time>2025-10-16T12:44:51.653Z</time>
      </trkpt>
      <trkpt lat="44.295" lon="0.88973">
        <ele>102.9</ele>
        <time>2025-10-16T12:45:15.653Z</time>
      </trkpt>
      <trkpt lat="44.29509" lon="0.88978">
        <ele>103</ele>
        <time>2025-10-16T12:45:23.653Z</time>
      </trkpt>
      <trkpt lat="44.29534" lon="0.89013">
        <ele>103.7</ele>
        <time>2025-10-16T12:45:55.653Z</time>
      </trkpt>
      <trkpt lat="44.29588" lon="0.89072">
        <ele>106.5</ele>
        <time>2025-10-16T12:46:59.653Z</time>
      </trkpt>
      <trkpt lat="44.29637" lon="0.89096">
        <ele>108</ele>
        <time>2025-10-16T12:47:47.653Z</time>
      </trkpt>
      <trkpt lat="44.29669" lon="0.89122">
        <ele>109</ele>
        <time>2025-10-16T12:48:19.653Z</time>
      </trkpt>
      <trkpt lat="44.29678" lon="0.89128">
        <ele>109.3</ele>
        <time>2025-10-16T12:48:27.653Z</time>
      </trkpt>
      <trkpt lat="44.29705" lon="0.89152">
        <ele>109.8</ele>
        <time>2025-10-16T12:48:59.653Z</time>
      </trkpt>
      <trkpt lat="44.29737" lon="0.89171">
        <ele>110.3</ele>
        <time>2025-10-16T12:49:31.653Z</time>
      </trkpt>
      <trkpt lat="44.29762" lon="0.89183">
        <ele>109.9</ele>
        <time>2025-10-16T12:49:55.653Z</time>
      </trkpt>
      <trkpt lat="44.29794" lon="0.89186">
        <ele>107.8</ele>
        <time>2025-10-16T12:50:27.653Z</time>
      </trkpt>
      <trkpt lat="44.29811" lon="0.89183">
        <ele>107</ele>
        <time>2025-10-16T12:50:43.653Z</time>
      </trkpt>
      <trkpt lat="44.29816" lon="0.89176">
        <ele>107.3</ele>
        <time>2025-10-16T12:53:11.653Z</time>
      </trkpt>
      <trkpt lat="44.29821" lon="0.89174">
        <ele>107</ele>
        <time>2025-10-16T12:54:15.653Z</time>
      </trkpt>
      <trkpt lat="44.29855" lon="0.8919">
        <ele>106</ele>
        <time>2025-10-16T12:54:47.653Z</time>
      </trkpt>
      <trkpt lat="44.29901" lon="0.89226">
        <ele>107.4</ele>
        <time>2025-10-16T12:55:35.653Z</time>
      </trkpt>
      <trkpt lat="44.29904" lon="0.89252">
        <ele>107.5</ele>
        <time>2025-10-16T12:55:51.653Z</time>
      </trkpt>
      <trkpt lat="44.29918" lon="0.8929">
        <ele>107.2</ele>
        <time>2025-10-16T12:56:23.653Z</time>
      </trkpt>
      <trkpt lat="44.2994" lon="0.89338">
        <ele>107.3</ele>
        <time>2025-10-16T12:56:55.653Z</time>
      </trkpt>
      <trkpt lat="44.29956" lon="0.89384">
        <ele>106.8</ele>
        <time>2025-10-16T12:57:27.653Z</time>
      </trkpt>
      <trkpt lat="44.29967" lon="0.89408">
        <ele>107.6</ele>
        <time>2025-10-16T12:57:43.653Z</time>
      </trkpt>
      <trkpt lat="44.29996" lon="0.89488">
        <ele>108.9</ele>
        <time>2025-10-16T12:58:43.653Z</time>
      </trkpt>
      <trkpt lat="44.29998" lon="0.89503">
        <ele>108.6</ele>
        <time>2025-10-16T12:58:59.653Z</time>
      </trkpt>
      <trkpt lat="44.30007" lon="0.89522">
        <ele>108.3</ele>
        <time>2025-10-16T12:59:15.653Z</time>
      </trkpt>
      <trkpt lat="44.30017" lon="0.89536">
        <ele>109</ele>
        <time>2025-10-16T13:00:51.653Z</time>
      </trkpt>
      <trkpt lat="44.30031" lon="0.89548">
        <ele>109.8</ele>
        <time>2025-10-16T13:01:39.653Z</time>
      </trkpt>
      <trkpt lat="44.30043" lon="0.89562">
        <ele>110</ele>
        <time>2025-10-16T13:01:55.653Z</time>
      </trkpt>
      <trkpt lat="44.30063" lon="0.89597">
        <ele>110.4</ele>
        <time>2025-10-16T13:02:27.653Z</time>
      </trkpt>
      <trkpt lat="44.30087" lon="0.89631">
        <ele>109.8</ele>
        <time>2025-10-16T13:02:59.653Z</time>
      </trkpt>
      <trkpt lat="44.30135" lon="0.89711">
        <ele>110.2</ele>
        <time>2025-10-16T13:04:03.652Z</time>
      </trkpt>
      <trkpt lat="44.30183" lon="0.89795">
        <ele>111.9</ele>
        <time>2025-10-16T13:05:07.653Z</time>
      </trkpt>
      <trkpt lat="44.30204" lon="0.89897">
        <ele>109.7</ele>
        <time>2025-10-16T13:06:11.653Z</time>
      </trkpt>
      <trkpt lat="44.30213" lon="0.89921">
        <ele>110</ele>
        <time>2025-10-16T13:06:27.653Z</time>
      </trkpt>
      <trkpt lat="44.3022" lon="0.89957">
        <ele>110.4</ele>
        <time>2025-10-16T13:06:59.653Z</time>
      </trkpt>
      <trkpt lat="44.30214" lon="0.89965">
        <ele>109.6</ele>
        <time>2025-10-16T13:09:55.653Z</time>
      </trkpt>
      <trkpt lat="44.30198" lon="0.89969">
        <ele>108.3</ele>
        <time>2025-10-16T13:10:11.653Z</time>
      </trkpt>
      <trkpt lat="44.3018" lon="0.89969">
        <ele>107.5</ele>
        <time>2025-10-16T13:10:27.653Z</time>
      </trkpt>
      <trkpt lat="44.30101" lon="0.89982">
        <ele>104.1</ele>
        <time>2025-10-16T13:11:31.653Z</time>
      </trkpt>
      <trkpt lat="44.30047" lon="0.90011">
        <ele>101.4</ele>
        <time>2025-10-16T13:12:19.653Z</time>
      </trkpt>
      <trkpt lat="44.30016" lon="0.90038">
        <ele>101</ele>
        <time>2025-10-16T13:12:51.653Z</time>
      </trkpt>
      <trkpt lat="44.29982" lon="0.90098">
        <ele>100.7</ele>
        <time>2025-10-16T13:13:39.653Z</time>
      </trkpt>
      <trkpt lat="44.29973" lon="0.90123">
        <ele>101.4</ele>
        <time>2025-10-16T13:13:55.653Z</time>
      </trkpt>
      <trkpt lat="44.29962" lon="0.90145">
        <ele>101.5</ele>
        <time>2025-10-16T13:14:11.653Z</time>
      </trkpt>
      <trkpt lat="44.29948" lon="0.90161">
        <ele>101</ele>
        <time>2025-10-16T13:14:27.653Z</time>
      </trkpt>
      <trkpt lat="44.29928" lon="0.90178">
        <ele>101.4</ele>
        <time>2025-10-16T13:14:43.653Z</time>
      </trkpt>
      <trkpt lat="44.29889" lon="0.90199">
        <ele>102</ele>
        <time>2025-10-16T13:15:31.653Z</time>
      </trkpt>
      <trkpt lat="44.29888" lon="0.90207">
        <ele>102</ele>
        <time>2025-10-16T13:15:47.653Z</time>
      </trkpt>
      <trkpt lat="44.29893" lon="0.90231">
        <ele>102.3</ele>
        <time>2025-10-16T13:16:03.653Z</time>
      </trkpt>
      <trkpt lat="44.29895" lon="0.90258">
        <ele>102.8</ele>
        <time>2025-10-16T13:16:19.653Z</time>
      </trkpt>
      <trkpt lat="44.29896" lon="0.90421">
        <ele>104.6</ele>
        <time>2025-10-16T13:17:55.653Z</time>
      </trkpt>
      <trkpt lat="44.29901" lon="0.90501">
        <ele>105.7</ele>
        <time>2025-10-16T13:18:43.653Z</time>
      </trkpt>
      <trkpt lat="44.29891" lon="0.90581">
        <ele>105.9</ele>
        <time>2025-10-16T13:19:31.653Z</time>
      </trkpt>
      <trkpt lat="44.29884" lon="0.90606">
        <ele>107.3</ele>
        <time>2025-10-16T13:19:47.652Z</time>
      </trkpt>
      <trkpt lat="44.29865" lon="0.90602">
        <ele>109.6</ele>
        <time>2025-10-16T13:20:35.653Z</time>
      </trkpt>
      <trkpt lat="44.2983" lon="0.90602">
        <ele>113.2</ele>
        <time>2025-10-16T13:21:07.653Z</time>
      </trkpt>
      <trkpt lat="44.29799" lon="0.90605">
        <ele>117.4</ele>
        <time>2025-10-16T13:21:39.653Z</time>
      </trkpt>
      <trkpt lat="44.2975" lon="0.90612">
        <ele>124.1</ele>
        <time>2025-10-16T13:22:43.653Z</time>
      </trkpt>
      <trkpt lat="44.29681" lon="0.90615">
        <ele>137.8</ele>
        <time>2025-10-16T13:24:11.652Z</time>
      </trkpt>
      <trkpt lat="44.29644" lon="0.90613">
        <ele>144.3</ele>
        <time>2025-10-16T13:24:59.653Z</time>
      </trkpt>
      <trkpt lat="44.29623" lon="0.90613">
        <ele>147.9</ele>
        <time>2025-10-16T13:25:31.653Z</time>
      </trkpt>
      <trkpt lat="44.29613" lon="0.90612">
        <ele>149.6</ele>
        <time>2025-10-16T13:27:31.653Z</time>
      </trkpt>
      <trkpt lat="44.29601" lon="0.90612">
        <ele>154</ele>
        <time>2025-10-16T13:28:31.653Z</time>
      </trkpt>
      <trkpt lat="44.29595" lon="0.90599">
        <ele>155.8</ele>
        <time>2025-10-16T13:28:43.653Z</time>
      </trkpt>
      <trkpt lat="44.29587" lon="0.906">
        <ele>158.9</ele>
        <time>2025-10-16T13:28:51.652Z</time>
      </trkpt>
      <trkpt lat="44.29578" lon="0.90587">
        <ele>160.8</ele>
        <time>2025-10-16T13:29:07.653Z</time>
      </trkpt>
      <trkpt lat="44.29569" lon="0.90586">
        <ele>163.3</ele>
        <time>2025-10-16T13:29:43.653Z</time>
      </trkpt>
      <trkpt lat="44.29564" lon="0.90576">
        <ele>164.3</ele>
        <time>2025-10-16T13:29:59.653Z</time>
      </trkpt>
      <trkpt lat="44.2955" lon="0.90558">
        <ele>167.4</ele>
        <time>2025-10-16T13:31:59.653Z</time>
      </trkpt>
      <trkpt lat="44.29541" lon="0.90536">
        <ele>170.1</ele>
        <time>2025-10-16T13:32:19.653Z</time>
      </trkpt>
      <trkpt lat="44.29536" lon="0.90531">
        <ele>171.7</ele>
        <time>2025-10-16T13:32:27.653Z</time>
      </trkpt>
      <trkpt lat="44.29523" lon="0.90505">
        <ele>174.5</ele>
        <time>2025-10-16T13:32:51.653Z</time>
      </trkpt>
      <trkpt lat="44.29524" lon="0.905">
        <ele>173.7</ele>
        <time>2025-10-16T13:32:55.653Z</time>
      </trkpt>
      <trkpt lat="44.29513" lon="0.90474">
        <ele>176.9</ele>
        <time>2025-10-16T13:33:15.653Z</time>
      </trkpt>
      <trkpt lat="44.29505" lon="0.90429">
        <ele>180.1</ele>
        <time>2025-10-16T13:33:47.653Z</time>
      </trkpt>
      <trkpt lat="44.29501" lon="0.90404">
        <ele>180.4</ele>
        <time>2025-10-16T13:34:11.653Z</time>
      </trkpt>
      <trkpt lat="44.29499" lon="0.90377">
        <ele>178.4</ele>
        <time>2025-10-16T13:34:51.653Z</time>
      </trkpt>
      <trkpt lat="44.29484" lon="0.90338">
        <ele>182.8</ele>
        <time>2025-10-16T13:35:23.653Z</time>
      </trkpt>
      <trkpt lat="44.29483" lon="0.90326">
        <ele>183.2</ele>
        <time>2025-10-16T13:35:31.653Z</time>
      </trkpt>
      <trkpt lat="44.29485" lon="0.90316">
        <ele>182.8</ele>
        <time>2025-10-16T13:35:39.653Z</time>
      </trkpt>
      <trkpt lat="44.29481" lon="0.90293">
        <ele>184.7</ele>
        <time>2025-10-16T13:35:55.653Z</time>
      </trkpt>
      <trkpt lat="44.29485" lon="0.9027">
        <ele>184.3</ele>
        <time>2025-10-16T13:36:11.653Z</time>
      </trkpt>
      <trkpt lat="44.2948" lon="0.90261">
        <ele>186.5</ele>
        <time>2025-10-16T13:36:17.653Z</time>
      </trkpt>
      <trkpt lat="44.29478" lon="0.9025">
        <ele>187.8</ele>
        <time>2025-10-16T13:36:25.653Z</time>
      </trkpt>
      <trkpt lat="44.29471" lon="0.90203">
        <ele>191.1</ele>
        <time>2025-10-16T13:37:01.653Z</time>
      </trkpt>
      <trkpt lat="44.29467" lon="0.90174">
        <ele>190.8</ele>
        <time>2025-10-16T13:37:21.653Z</time>
      </trkpt>
      <trkpt lat="44.29461" lon="0.90167">
        <ele>193.4</ele>
        <time>2025-10-16T13:37:31.653Z</time>
      </trkpt>
      <trkpt lat="44.29458" lon="0.90157">
        <ele>192.9</ele>
        <time>2025-10-16T13:37:39.653Z</time>
      </trkpt>
      <trkpt lat="44.29433" lon="0.90111">
        <ele>193.2</ele>
        <time>2025-10-16T13:38:21.653Z</time>
      </trkpt>
      <trkpt lat="44.2942" lon="0.901">
        <ele>194.4</ele>
        <time>2025-10-16T13:38:33.653Z</time>
      </trkpt>
      <trkpt lat="44.29415" lon="0.901">
        <ele>195.9</ele>
        <time>2025-10-16T13:38:37.653Z</time>
      </trkpt>
      <trkpt lat="44.29393" lon="0.90088">
        <ele>194.1</ele>
        <time>2025-10-16T13:39:01.653Z</time>
      </trkpt>
      <trkpt lat="44.29382" lon="0.90086">
        <ele>193.7</ele>
        <time>2025-10-16T13:39:09.653Z</time>
      </trkpt>
      <trkpt lat="44.29376" lon="0.90091">
        <ele>195.5</ele>
        <time>2025-10-16T13:39:17.653Z</time>
      </trkpt>
      <trkpt lat="44.2933" lon="0.90091">
        <ele>191.1</ele>
        <time>2025-10-16T13:39:57.653Z</time>
      </trkpt>
      <trkpt lat="44.29316" lon="0.90096">
        <ele>191.1</ele>
        <time>2025-10-16T13:40:13.653Z</time>
      </trkpt>
      <trkpt lat="44.29305" lon="0.90103">
        <ele>190.8</ele>
        <time>2025-10-16T13:40:21.653Z</time>
      </trkpt>
      <trkpt lat="44.29307" lon="0.90114">
        <ele>191.9</ele>
        <time>2025-10-16T13:40:33.653Z</time>
      </trkpt>
      <trkpt lat="44.29306" lon="0.90123">
        <ele>190.3</ele>
        <time>2025-10-16T13:43:57.653Z</time>
      </trkpt>
      <trkpt lat="44.29298" lon="0.90119">
        <ele>189.7</ele>
        <time>2025-10-16T13:45:01.653Z</time>
      </trkpt>
      <trkpt lat="44.29285" lon="0.90109">
        <ele>189</ele>
        <time>2025-10-16T13:45:45.652Z</time>
      </trkpt>
      <trkpt lat="44.29278" lon="0.90107">
        <ele>188</ele>
        <time>2025-10-16T13:45:53.653Z</time>
      </trkpt>
      <trkpt lat="44.29256" lon="0.90092">
        <ele>184.8</ele>
        <time>2025-10-16T13:46:17.653Z</time>
      </trkpt>
      <trkpt lat="44.29243" lon="0.90072">
        <ele>182.5</ele>
        <time>2025-10-16T13:46:33.653Z</time>
      </trkpt>
      <trkpt lat="44.29228" lon="0.90053">
        <ele>180.8</ele>
        <time>2025-10-16T13:46:49.653Z</time>
      </trkpt>
      <trkpt lat="44.29211" lon="0.90039">
        <ele>180</ele>
        <time>2025-10-16T13:47:05.653Z</time>
      </trkpt>
      <trkpt lat="44.29164" lon="0.89955">
        <ele>190.3</ele>
        <time>2025-10-16T13:48:25.653Z</time>
      </trkpt>
      <trkpt lat="44.29152" lon="0.89944">
        <ele>192.7</ele>
        <time>2025-10-16T13:48:45.653Z</time>
      </trkpt>
      <trkpt lat="44.29152" lon="0.89926">
        <ele>194</ele>
        <time>2025-10-16T13:52:37.653Z</time>
      </trkpt>
      <trkpt lat="44.29134" lon="0.89901">
        <ele>198.3</ele>
        <time>2025-10-16T13:53:09.653Z</time>
      </trkpt>
      <trkpt lat="44.29103" lon="0.8984">
        <ele>198.2</ele>
        <time>2025-10-16T13:53:57.653Z</time>
      </trkpt>
      <trkpt lat="44.29101" lon="0.89824">
        <ele>197.5</ele>
        <time>2025-10-16T13:54:13.652Z</time>
      </trkpt>
      <trkpt lat="44.29087" lon="0.89785">
        <ele>201.8</ele>
        <time>2025-10-16T13:54:45.653Z</time>
      </trkpt>
      <trkpt lat="44.29086" lon="0.89775">
        <ele>201.7</ele>
        <time>2025-10-16T13:54:53.653Z</time>
      </trkpt>
      <trkpt lat="44.29085" lon="0.89766">
        <ele>201.1</ele>
        <time>2025-10-16T13:55:01.653Z</time>
      </trkpt>
      <trkpt lat="44.2909" lon="0.89728">
        <ele>194</ele>
        <time>2025-10-16T13:56:05.653Z</time>
      </trkpt>
      <trkpt lat="44.29081" lon="0.89702">
        <ele>194.3</ele>
        <time>2025-10-16T13:56:21.653Z</time>
      </trkpt>
      <trkpt lat="44.29084" lon="0.89687">
        <ele>190.9</ele>
        <time>2025-10-16T13:56:37.653Z</time>
      </trkpt>
      <trkpt lat="44.2908" lon="0.8965">
        <ele>187.3</ele>
        <time>2025-10-16T13:57:09.653Z</time>
      </trkpt>
      <trkpt lat="44.29075" lon="0.89636">
        <ele>185.4</ele>
        <time>2025-10-16T13:57:25.653Z</time>
      </trkpt>
      <trkpt lat="44.29058" lon="0.89613">
        <ele>179.7</ele>
        <time>2025-10-16T13:57:49.653Z</time>
      </trkpt>
      <trkpt lat="44.29041" lon="0.8961">
        <ele>176.7</ele>
        <time>2025-10-16T13:58:13.653Z</time>
      </trkpt>
      <trkpt lat="44.29006" lon="0.89613">
        <ele>170.4</ele>
        <time>2025-10-16T13:59:01.653Z</time>
      </trkpt>
      <trkpt lat="44.29" lon="0.89612">
        <ele>168.1</ele>
        <time>2025-10-16T13:59:09.652Z</time>
      </trkpt>
      <trkpt lat="44.28986" lon="0.89589">
        <ele>160.8</ele>
        <time>2025-10-16T13:59:37.653Z</time>
      </trkpt>
      <trkpt lat="44.28981" lon="0.8959">
        <ele>159.9</ele>
        <time>2025-10-16T13:59:45.653Z</time>
      </trkpt>
      <trkpt lat="44.28977" lon="0.89594">
        <ele>159.6</ele>
        <time>2025-10-16T13:59:53.653Z</time>
      </trkpt>
      <trkpt lat="44.28973" lon="0.89614">
        <ele>161.6</ele>
        <time>2025-10-16T14:00:09.653Z</time>
      </trkpt>
      <trkpt lat="44.28961" lon="0.89635">
        <ele>160.5</ele>
        <time>2025-10-16T14:00:25.653Z</time>
      </trkpt>
      <trkpt lat="44.28948" lon="0.89669">
        <ele>159.5</ele>
        <time>2025-10-16T14:00:49.652Z</time>
      </trkpt>
      <trkpt lat="44.28947" lon="0.89682">
        <ele>162</ele>
        <time>2025-10-16T14:00:57.653Z</time>
      </trkpt>
      <trkpt lat="44.28938" lon="0.89706">
        <ele>163.4</ele>
        <time>2025-10-16T14:01:13.653Z</time>
      </trkpt>
      <trkpt lat="44.28918" lon="0.89743">
        <ele>161.2</ele>
        <time>2025-10-16T14:01:45.652Z</time>
      </trkpt>
      <trkpt lat="44.28893" lon="0.8977">
        <ele>154.5</ele>
        <time>2025-10-16T14:02:17.653Z</time>
      </trkpt>
      <trkpt lat="44.28885" lon="0.89789">
        <ele>150.5</ele>
        <time>2025-10-16T14:02:33.653Z</time>
      </trkpt>
      <trkpt lat="44.28881" lon="0.89808">
        <ele>147.7</ele>
        <time>2025-10-16T14:02:49.653Z</time>
      </trkpt>
      <trkpt lat="44.28877" lon="0.89813">
        <ele>146.6</ele>
        <time>2025-10-16T14:03:53.653Z</time>
      </trkpt>
      <trkpt lat="44.28879" lon="0.89823">
        <ele>147</ele>
        <time>2025-10-16T14:04:57.653Z</time>
      </trkpt>
      <trkpt lat="44.28875" lon="0.89831">
        <ele>145.9</ele>
        <time>2025-10-16T14:05:13.653Z</time>
      </trkpt>
      <trkpt lat="44.28868" lon="0.89829">
        <ele>143.9</ele>
        <time>2025-10-16T14:05:29.653Z</time>
      </trkpt>
      <trkpt lat="44.28849" lon="0.89836">
        <ele>140.2</ele>
        <time>2025-10-16T14:05:45.653Z</time>
      </trkpt>
      <trkpt lat="44.28837" lon="0.8983">
        <ele>138.5</ele>
        <time>2025-10-16T14:05:53.653Z</time>
      </trkpt>
      <trkpt lat="44.28777" lon="0.8982">
        <ele>130.4</ele>
        <time>2025-10-16T14:06:57.653Z</time>
      </trkpt>
      <trkpt lat="44.28775" lon="0.89818">
        <ele>129.7</ele>
        <time>2025-10-16T14:07:01.652Z</time>
      </trkpt>
      <trkpt lat="44.2876" lon="0.89815">
        <ele>125.6</ele>
        <time>2025-10-16T14:07:33.653Z</time>
      </trkpt>
      <trkpt lat="44.28754" lon="0.89815">
        <ele>124.1</ele>
        <time>2025-10-16T14:07:37.653Z</time>
      </trkpt>
      <trkpt lat="44.2874" lon="0.89804">
        <ele>121.6</ele>
        <time>2025-10-16T14:07:49.653Z</time>
      </trkpt>
      <trkpt lat="44.2873" lon="0.89801">
        <ele>120.1</ele>
        <time>2025-10-16T14:07:57.653Z</time>
      </trkpt>
      <trkpt lat="44.28716" lon="0.89806">
        <ele>118.1</ele>
        <time>2025-10-16T14:08:09.653Z</time>
      </trkpt>
      <trkpt lat="44.28691" lon="0.89797">
        <ele>114.3</ele>
        <time>2025-10-16T14:08:33.653Z</time>
      </trkpt>
      <trkpt lat="44.28677" lon="0.89797">
        <ele>111.4</ele>
        <time>2025-10-16T14:08:49.653Z</time>
      </trkpt>
      <trkpt lat="44.28645" lon="0.89804">
        <ele>105</ele>
        <time>2025-10-16T14:09:21.653Z</time>
      </trkpt>
      <trkpt lat="44.28543" lon="0.89812">
        <ele>98</ele>
        <time>2025-10-16T14:10:57.653Z</time>
      </trkpt>
      <trkpt lat="44.28472" lon="0.8983">
        <ele>96</ele>
        <time>2025-10-16T14:12:01.653Z</time>
      </trkpt>
      <trkpt lat="44.28379" lon="0.89838">
        <ele>97</ele>
        <time>2025-10-16T14:13:21.653Z</time>
      </trkpt>
      <trkpt lat="44.28302" lon="0.8986">
        <ele>98.3</ele>
        <time>2025-10-16T14:14:25.653Z</time>
      </trkpt>
      <trkpt lat="44.28282" lon="0.89862">
        <ele>98.9</ele>
        <time>2025-10-16T14:14:41.653Z</time>
      </trkpt>
      <trkpt lat="44.28254" lon="0.89857">
        <ele>102.6</ele>
        <time>2025-10-16T14:15:05.653Z</time>
      </trkpt>
      <trkpt lat="44.28249" lon="0.89848">
        <ele>103.5</ele>
        <time>2025-10-16T14:15:13.653Z</time>
      </trkpt>
      <trkpt lat="44.28253" lon="0.89809">
        <ele>105.6</ele>
        <time>2025-10-16T14:15:45.653Z</time>
      </trkpt>
      <trkpt lat="44.28253" lon="0.89782">
        <ele>107.3</ele>
        <time>2025-10-16T14:16:17.653Z</time>
      </trkpt>
      <trkpt lat="44.28247" lon="0.89761">
        <ele>109</ele>
        <time>2025-10-16T14:16:33.653Z</time>
      </trkpt>
      <trkpt lat="44.28242" lon="0.89726">
        <ele>110.6</ele>
        <time>2025-10-16T14:16:57.653Z</time>
      </trkpt>
      <trkpt lat="44.28238" lon="0.89716">
        <ele>111.5</ele>
        <time>2025-10-16T14:17:05.653Z</time>
      </trkpt>
      <trkpt lat="44.28231" lon="0.8971">
        <ele>113.1</ele>
        <time>2025-10-16T14:17:13.653Z</time>
      </trkpt>
      <trkpt lat="44.28197" lon="0.89706">
        <ele>117.4</ele>
        <time>2025-10-16T14:17:45.653Z</time>
      </trkpt>
      <trkpt lat="44.28137" lon="0.89691">
        <ele>126.1</ele>
        <time>2025-10-16T14:18:49.653Z</time>
      </trkpt>
      <trkpt lat="44.28123" lon="0.89685">
        <ele>127.8</ele>
        <time>2025-10-16T14:19:05.653Z</time>
      </trkpt>
      <trkpt lat="44.28111" lon="0.89674">
        <ele>129.8</ele>
        <time>2025-10-16T14:19:21.653Z</time>
      </trkpt>
      <trkpt lat="44.28097" lon="0.89667">
        <ele>131.5</ele>
        <time>2025-10-16T14:19:37.653Z</time>
      </trkpt>
      <trkpt lat="44.28029" lon="0.89667">
        <ele>135</ele>
        <time>2025-10-16T14:20:49.653Z</time>
      </trkpt>
      <trkpt lat="44.28016" lon="0.89663">
        <ele>135.5</ele>
        <time>2025-10-16T14:21:37.653Z</time>
      </trkpt>
      <trkpt lat="44.28004" lon="0.89644">
        <ele>136.5</ele>
        <time>2025-10-16T14:21:53.653Z</time>
      </trkpt>
      <trkpt lat="44.27996" lon="0.89641">
        <ele>136.9</ele>
        <time>2025-10-16T14:22:01.653Z</time>
      </trkpt>
      <trkpt lat="44.27968" lon="0.89615">
        <ele>137.1</ele>
        <time>2025-10-16T14:22:33.653Z</time>
      </trkpt>
      <trkpt lat="44.27949" lon="0.89593">
        <ele>138.2</ele>
        <time>2025-10-16T14:22:57.652Z</time>
      </trkpt>
      <trkpt lat="44.27945" lon="0.89586">
        <ele>138.8</ele>
        <time>2025-10-16T14:23:05.653Z</time>
      </trkpt>
      <trkpt lat="44.2794" lon="0.89542">
        <ele>141</ele>
        <time>2025-10-16T14:23:37.653Z</time>
      </trkpt>
      <trkpt lat="44.27936" lon="0.89536">
        <ele>142</ele>
        <time>2025-10-16T14:23:45.653Z</time>
      </trkpt>
      <trkpt lat="44.27932" lon="0.89513">
        <ele>144.1</ele>
        <time>2025-10-16T14:24:01.653Z</time>
      </trkpt>
      <trkpt lat="44.27928" lon="0.89508">
        <ele>145.3</ele>
        <time>2025-10-16T14:24:13.653Z</time>
      </trkpt>
      <trkpt lat="44.27912" lon="0.89529">
        <ele>148.2</ele>
        <time>2025-10-16T14:24:45.653Z</time>
      </trkpt>
      <trkpt lat="44.27886" lon="0.89552">
        <ele>152.9</ele>
        <time>2025-10-16T14:25:17.652Z</time>
      </trkpt>
      <trkpt lat="44.27865" lon="0.89556">
        <ele>156.1</ele>
        <time>2025-10-16T14:25:41.653Z</time>
      </trkpt>
      <trkpt lat="44.27849" lon="0.89564">
        <ele>157</ele>
        <time>2025-10-16T14:26:05.653Z</time>
      </trkpt>
      <trkpt lat="44.27828" lon="0.89555">
        <ele>160.4</ele>
        <time>2025-10-16T14:26:29.653Z</time>
      </trkpt>
      <trkpt lat="44.27819" lon="0.89547">
        <ele>162.4</ele>
        <time>2025-10-16T14:26:45.653Z</time>
      </trkpt>
      <trkpt lat="44.27809" lon="0.89544">
        <ele>163.5</ele>
        <time>2025-10-16T14:27:01.653Z</time>
      </trkpt>
      <trkpt lat="44.27801" lon="0.89538">
        <ele>165</ele>
        <time>2025-10-16T14:27:17.653Z</time>
      </trkpt>
      <trkpt lat="44.27791" lon="0.89535">
        <ele>166.2</ele>
        <time>2025-10-16T14:27:33.653Z</time>
      </trkpt>
      <trkpt lat="44.27789" lon="0.89527">
        <ele>168.6</ele>
        <time>2025-10-16T14:27:49.653Z</time>
      </trkpt>
      <trkpt lat="44.27801" lon="0.89509">
        <ele>173.5</ele>
        <time>2025-10-16T14:28:21.653Z</time>
      </trkpt>
      <trkpt lat="44.27805" lon="0.89497">
        <ele>177</ele>
        <time>2025-10-16T14:28:29.653Z</time>
      </trkpt>
      <trkpt lat="44.27811" lon="0.8949">
        <ele>178.2</ele>
        <time>2025-10-16T14:28:37.653Z</time>
      </trkpt>
      <trkpt lat="44.27814" lon="0.8948">
        <ele>180.3</ele>
        <time>2025-10-16T14:28:45.653Z</time>
      </trkpt>
      <trkpt lat="44.27823" lon="0.89469">
        <ele>181.7</ele>
        <time>2025-10-16T14:29:01.653Z</time>
      </trkpt>
      <trkpt lat="44.2783" lon="0.89456">
        <ele>183.8</ele>
        <time>2025-10-16T14:29:13.653Z</time>
      </trkpt>
      <trkpt lat="44.27826" lon="0.89454">
        <ele>185.2</ele>
        <time>2025-10-16T14:29:29.653Z</time>
      </trkpt>
      <trkpt lat="44.27811" lon="0.89473">
        <ele>182.9</ele>
        <time>2025-10-16T14:30:25.653Z</time>
      </trkpt>
      <trkpt lat="44.27802" lon="0.89475">
        <ele>183.6</ele>
        <time>2025-10-16T14:30:35.653Z</time>
      </trkpt>
      <trkpt lat="44.27799" lon="0.89472">
        <ele>184.9</ele>
        <time>2025-10-16T14:30:39.653Z</time>
      </trkpt>
      <trkpt lat="44.27793" lon="0.89474">
        <ele>184.8</ele>
        <time>2025-10-16T14:30:47.653Z</time>
      </trkpt>
      <trkpt lat="44.27785" lon="0.89472">
        <ele>186.2</ele>
        <time>2025-10-16T14:30:55.653Z</time>
      </trkpt>
      <trkpt lat="44.27777" lon="0.89475">
        <ele>186</ele>
        <time>2025-10-16T14:31:03.653Z</time>
      </trkpt>
      <trkpt lat="44.27763" lon="0.89472">
        <ele>186.5</ele>
        <time>2025-10-16T14:31:19.653Z</time>
      </trkpt>
      <trkpt lat="44.27748" lon="0.89466">
        <ele>188.4</ele>
        <time>2025-10-16T14:31:35.653Z</time>
      </trkpt>
      <trkpt lat="44.27747" lon="0.89462">
        <ele>189.8</ele>
        <time>2025-10-16T14:31:39.653Z</time>
      </trkpt>
      <trkpt lat="44.27719" lon="0.89447">
        <ele>195.8</ele>
        <time>2025-10-16T14:32:11.653Z</time>
      </trkpt>
      <trkpt lat="44.27699" lon="0.89419">
        <ele>203.1</ele>
        <time>2025-10-16T14:32:43.653Z</time>
      </trkpt>
      <trkpt lat="44.2769" lon="0.894">
        <ele>206</ele>
        <time>2025-10-16T14:33:07.653Z</time>
      </trkpt>
      <trkpt lat="44.27686" lon="0.89405">
        <ele>205.8</ele>
        <time>2025-10-16T14:35:07.653Z</time>
      </trkpt>
      <trkpt lat="44.27672" lon="0.89408">
        <ele>206.4</ele>
        <time>2025-10-16T14:36:27.653Z</time>
      </trkpt>
      <trkpt lat="44.27662" lon="0.89389">
        <ele>208.2</ele>
        <time>2025-10-16T14:36:43.653Z</time>
      </trkpt>
      <trkpt lat="44.27655" lon="0.89367">
        <ele>209.2</ele>
        <time>2025-10-16T14:36:59.653Z</time>
      </trkpt>
      <trkpt lat="44.27651" lon="0.89342">
        <ele>209.6</ele>
        <time>2025-10-16T14:37:15.652Z</time>
      </trkpt>
      <trkpt lat="44.27607" lon="0.89234">
        <ele>213.1</ele>
        <time>2025-10-16T14:38:35.653Z</time>
      </trkpt>
      <trkpt lat="44.27602" lon="0.8921">
        <ele>213.6</ele>
        <time>2025-10-16T14:38:51.653Z</time>
      </trkpt>
      <trkpt lat="44.27598" lon="0.89157">
        <ele>215</ele>
        <time>2025-10-16T14:39:23.653Z</time>
      </trkpt>
      <trkpt lat="44.27593" lon="0.89132">
        <ele>215.1</ele>
        <time>2025-10-16T14:39:39.653Z</time>
      </trkpt>
      <trkpt lat="44.27576" lon="0.89086">
        <ele>213.7</ele>
        <time>2025-10-16T14:40:11.653Z</time>
      </trkpt>
      <trkpt lat="44.2757" lon="0.89059">
        <ele>212.2</ele>
        <time>2025-10-16T14:40:27.653Z</time>
      </trkpt>
      <trkpt lat="44.27559" lon="0.89035">
        <ele>211.2</ele>
        <time>2025-10-16T14:40:43.653Z</time>
      </trkpt>
      <trkpt lat="44.27551" lon="0.89009">
        <ele>210.2</ele>
        <time>2025-10-16T14:40:59.653Z</time>
      </trkpt>
      <trkpt lat="44.27499" lon="0.88935">
        <ele>201.9</ele>
        <time>2025-10-16T14:42:03.653Z</time>
      </trkpt>
      <trkpt lat="44.27486" lon="0.88904">
        <ele>199.4</ele>
        <time>2025-10-16T14:42:27.653Z</time>
      </trkpt>
      <trkpt lat="44.27481" lon="0.88898">
        <ele>199.1</ele>
        <time>2025-10-16T14:42:35.653Z</time>
      </trkpt>
      <trkpt lat="44.27477" lon="0.88897">
        <ele>199.2</ele>
        <time>2025-10-16T14:42:39.653Z</time>
      </trkpt>
      <trkpt lat="44.2745" lon="0.88905">
        <ele>200.5</ele>
        <time>2025-10-16T14:43:03.653Z</time>
      </trkpt>
      <trkpt lat="44.27445" lon="0.88903">
        <ele>200.5</ele>
        <time>2025-10-16T14:43:07.653Z</time>
      </trkpt>
      <trkpt lat="44.27432" lon="0.88851">
        <ele>201.1</ele>
        <time>2025-10-16T14:43:39.653Z</time>
      </trkpt>
      <trkpt lat="44.27426" lon="0.88797">
        <ele>200.5</ele>
        <time>2025-10-16T14:44:11.653Z</time>
      </trkpt>
      <trkpt lat="44.27429" lon="0.88784">
        <ele>199.5</ele>
        <time>2025-10-16T14:44:19.653Z</time>
      </trkpt>
      <trkpt lat="44.27449" lon="0.88764">
        <ele>194.4</ele>
        <time>2025-10-16T14:44:43.653Z</time>
      </trkpt>
      <trkpt lat="44.27441" lon="0.88742">
        <ele>194.5</ele>
        <time>2025-10-16T14:44:59.653Z</time>
      </trkpt>
      <trkpt lat="44.27435" lon="0.88733">
        <ele>194.8</ele>
        <time>2025-10-16T14:45:07.653Z</time>
      </trkpt>
      <trkpt lat="44.27436" lon="0.88722">
        <ele>193.7</ele>
        <time>2025-10-16T14:45:15.653Z</time>
      </trkpt>
      <trkpt lat="44.27446" lon="0.88691">
        <ele>196.1</ele>
        <time>2025-10-16T14:45:47.653Z</time>
      </trkpt>
      <trkpt lat="44.27497" lon="0.88622">
        <ele>199.9</ele>
        <time>2025-10-16T14:46:51.653Z</time>
      </trkpt>
      <trkpt lat="44.27601" lon="0.88508">
        <ele>200.8</ele>
        <time>2025-10-16T14:48:47.652Z</time>
      </trkpt>
      <trkpt lat="44.27648" lon="0.88497">
        <ele>199.2</ele>
        <time>2025-10-16T14:49:27.653Z</time>
      </trkpt>
      <trkpt lat="44.27707" lon="0.88452">
        <ele>196</ele>
        <time>2025-10-16T14:50:23.653Z</time>
      </trkpt>
      <trkpt lat="44.27726" lon="0.88442">
        <ele>197.3</ele>
        <time>2025-10-16T14:50:39.653Z</time>
      </trkpt>
      <trkpt lat="44.27753" lon="0.88434">
        <ele>197.2</ele>
        <time>2025-10-16T14:51:03.653Z</time>
      </trkpt>
      <trkpt lat="44.27762" lon="0.88427">
        <ele>197.1</ele>
        <time>2025-10-16T14:51:11.653Z</time>
      </trkpt>
      <trkpt lat="44.27768" lon="0.8841">
        <ele>199.2</ele>
        <time>2025-10-16T14:51:27.653Z</time>
      </trkpt>
      <trkpt lat="44.27772" lon="0.88301">
        <ele>207.1</ele>
        <time>2025-10-16T14:53:03.653Z</time>
      </trkpt>
      <trkpt lat="44.27779" lon="0.88255">
        <ele>211.2</ele>
        <time>2025-10-16T14:53:35.653Z</time>
      </trkpt>
      <trkpt lat="44.27785" lon="0.88239">
        <ele>209.9</ele>
        <time>2025-10-16T14:53:47.653Z</time>
      </trkpt>
      <trkpt lat="44.27778" lon="0.88226">
        <ele>209.4</ele>
        <time>2025-10-16T14:53:59.653Z</time>
      </trkpt>
      <trkpt lat="44.27735" lon="0.88214">
        <ele>210.5</ele>
        <time>2025-10-16T14:54:39.653Z</time>
      </trkpt>
      <trkpt lat="44.27726" lon="0.88214">
        <ele>210.1</ele>
        <time>2025-10-16T14:54:47.653Z</time>
      </trkpt>
      <trkpt lat="44.27717" lon="0.88209">
        <ele>210.1</ele>
        <time>2025-10-16T14:54:55.653Z</time>
      </trkpt>
      <trkpt lat="44.27703" lon="0.88197">
        <ele>210.1</ele>
        <time>2025-10-16T14:55:11.653Z</time>
      </trkpt>
      <trkpt lat="44.27696" lon="0.88198">
        <ele>210.1</ele>
        <time>2025-10-16T14:55:19.653Z</time>
      </trkpt>
    </trkseg>
  </trk>
</gpx>